sensor_id;sensor_type;location;lat;lon;timestamp;pressure;altitude;pressure_sealevel;temperature;humidity
2785;BME280;57944;48.722;9.316;2023-04-25T00:01:40;97465.13;;;7.68;100.00
2785;BME280;57944;48.722;9.316;2023-04-25T00:04:10;97463.19;;;7.70;100.00
2785;BME280;57944;48.722;9.316;2023-04-25T00:06:41;97467.81;;;7.60;100.00
2785;BME280;57944;48.722;9.316;2023-04-25T00:09:14;97466.25;;;7.59;100.00
2785;BME280;57944;48.722;9.316;2023-04-25T00:11:44;97466.34;;;7.72;100.00
2785;BME280;57944;48.722;9.316;2023-04-25T00:14:15;97470.72;;;7.57;100.00
2785;BME280;57944;48.722;9.316;2023-04-25T00:16:45;97460.13;;;7.47;100.00
2785;BME280;57944;48.722;9.316;2023-04-25T00:19:15;97463.00;;;7.44;100.00
2785;BME280;57944;48.722;9.316;2023-04-25T00:21:46;97449.66;;;7.56;100.00
2785;BME280;57944;48.722;9.316;2023-04-25T00:24:19;97449.78;;;7.48;100.00
2785;BME280;57944;48.722;9.316;2023-04-25T00:26:49;97446.34;;;7.56;100.00
2785;BME280;57944;48.722;9.316;2023-04-25T00:29:19;97447.47;;;7.47;100.00
2785;BME280;57944;48.722;9.316;2023-04-25T00:31:49;97448.31;;;7.32;100.00
2785;BME280;57944;48.722;9.316;2023-04-25T00:34:20;97451.22;;;7.29;100.00
2785;BME280;57944;48.722;9.316;2023-04-25T00:36:50;97452.53;;;7.47;100.00
2785;BME280;57944;48.722;9.316;2023-04-25T00:39:23;97454.56;;;7.58;100.00
2785;BME280;57944;48.722;9.316;2023-04-25T00:41:57;97457.66;;;7.60;100.00
2785;BME280;57944;48.722;9.316;2023-04-25T00:44:27;97454.41;;;7.66;100.00
2785;BME280;57944;48.722;9.316;2023-04-25T00:46:59;97456.19;;;7.72;100.00
2785;BME280;57944;48.722;9.316;2023-04-25T00:49:31;97451.16;;;7.79;100.00
2785;BME280;57944;48.722;9.316;2023-04-25T00:52:01;97458.59;;;7.80;100.00
2785;BME280;57944;48.722;9.316;2023-04-25T00:54:34;97444.75;;;7.83;100.00
2785;BME280;57944;48.722;9.316;2023-04-25T00:57:04;97436.13;;;7.77;100.00
2785;BME280;57944;48.722;9.316;2023-04-25T00:59:35;97433.59;;;7.77;100.00
2785;BME280;57944;48.722;9.316;2023-04-25T01:02:06;97435.59;;;7.89;100.00
2785;BME280;57944;48.722;9.316;2023-04-25T01:04:37;97434.03;;;7.88;100.00
2785;BME280;57944;48.722;9.316;2023-04-25T01:07:07;97431.63;;;7.79;100.00
2785;BME280;57944;48.722;9.316;2023-04-25T01:09:41;97430.84;;;7.79;100.00
2785;BME280;57944;48.722;9.316;2023-04-25T01:12:11;97421.34;;;7.88;100.00
2785;BME280;57944;48.722;9.316;2023-04-25T01:14:42;97426.25;;;7.96;100.00
2785;BME280;57944;48.722;9.316;2023-04-25T01:17:12;97422.13;;;7.88;100.00
2785;BME280;57944;48.722;9.316;2023-04-25T01:19:43;97420.94;;;7.84;100.00
2785;BME280;57944;48.722;9.316;2023-04-25T01:22:16;97424.44;;;7.83;100.00
2785;BME280;57944;48.722;9.316;2023-04-25T01:24:46;97415.25;;;7.82;100.00
2785;BME280;57944;48.722;9.316;2023-04-25T01:27:17;97417.63;;;7.83;100.00
2785;BME280;57944;48.722;9.316;2023-04-25T01:29:48;97412.50;;;7.77;100.00
2785;BME280;57944;48.722;9.316;2023-04-25T01:32:19;97417.53;;;7.70;100.00
2785;BME280;57944;48.722;9.316;2023-04-25T01:34:50;97405.25;;;7.67;100.00
2785;BME280;57944;48.722;9.316;2023-04-25T01:37:23;97405.84;;;7.69;100.00
2785;BME280;57944;48.722;9.316;2023-04-25T01:39:53;97410.91;;;7.69;100.00
2785;BME280;57944;48.722;9.316;2023-04-25T01:42:23;97411.63;;;7.63;100.00
2785;BME280;57944;48.722;9.316;2023-04-25T01:44:53;97414.75;;;7.58;100.00
2785;BME280;57944;48.722;9.316;2023-04-25T01:47:24;97416.84;;;7.55;100.00
2785;BME280;57944;48.722;9.316;2023-04-25T01:49:55;97423.88;;;7.53;100.00
2785;BME280;57944;48.722;9.316;2023-04-25T01:52:28;97416.66;;;7.50;100.00
2785;BME280;57944;48.722;9.316;2023-04-25T01:54:59;97410.34;;;7.39;100.00
2785;BME280;57944;48.722;9.316;2023-04-25T01:57:32;97410.72;;;7.36;100.00
2785;BME280;57944;48.722;9.316;2023-04-25T02:00:04;97407.19;;;7.30;100.00
2785;BME280;57944;48.722;9.316;2023-04-25T02:02:38;97407.34;;;7.29;100.00
2785;BME280;57944;48.722;9.316;2023-04-25T02:05:35;97412.00;;;7.25;100.00
2785;BME280;57944;48.722;9.316;2023-04-25T02:08:11;97407.38;;;7.07;100.00
2785;BME280;57944;48.722;9.316;2023-04-25T02:10:42;97403.81;;;7.02;100.00
2785;BME280;57944;48.722;9.316;2023-04-25T02:13:18;97396.16;;;6.88;100.00
2785;BME280;57944;48.722;9.316;2023-04-25T02:15:57;97401.91;;;6.82;100.00
2785;BME280;57944;48.722;9.316;2023-04-25T02:18:27;97401.38;;;6.65;100.00
2785;BME280;57944;48.722;9.316;2023-04-25T02:20:59;97405.25;;;6.61;100.00
2785;BME280;57944;48.722;9.316;2023-04-25T02:23:32;97403.34;;;6.48;100.00
2785;BME280;57944;48.722;9.316;2023-04-25T02:26:03;97392.81;;;6.45;100.00
2785;BME280;57944;48.722;9.316;2023-04-25T02:28:33;97400.94;;;6.40;100.00
2785;BME280;57944;48.722;9.316;2023-04-25T02:31:04;97398.88;;;6.29;100.00
2785;BME280;57944;48.722;9.316;2023-04-25T02:33:35;97394.44;;;6.31;100.00
2785;BME280;57944;48.722;9.316;2023-04-25T02:36:06;97389.47;;;6.23;100.00
2785;BME280;57944;48.722;9.316;2023-04-25T02:38:39;97386.34;;;6.21;100.00
2785;BME280;57944;48.722;9.316;2023-04-25T02:41:09;97387.56;;;6.25;100.00
2785;BME280;57944;48.722;9.316;2023-04-25T02:43:39;97391.03;;;6.24;100.00
2785;BME280;57944;48.722;9.316;2023-04-25T02:46:10;97387.47;;;6.18;100.00
2785;BME280;57944;48.722;9.316;2023-04-25T02:48:40;97385.38;;;6.22;100.00
2785;BME280;57944;48.722;9.316;2023-04-25T02:51:10;97381.34;;;6.28;100.00
2785;BME280;57944;48.722;9.316;2023-04-25T02:53:44;97377.31;;;6.33;100.00
2785;BME280;57944;48.722;9.316;2023-04-25T02:56:14;97381.00;;;6.31;100.00
2785;BME280;57944;48.722;9.316;2023-04-25T02:58:44;97386.59;;;6.26;100.00
2785;BME280;57944;48.722;9.316;2023-04-25T03:01:15;97391.03;;;6.24;100.00
2785;BME280;57944;48.722;9.316;2023-04-25T03:03:45;97390.63;;;6.20;100.00
2785;BME280;57944;48.722;9.316;2023-04-25T03:06:16;97388.34;;;6.25;100.00
2785;BME280;57944;48.722;9.316;2023-04-25T03:08:50;97379.84;;;6.33;100.00
2785;BME280;57944;48.722;9.316;2023-04-25T03:11:20;97373.72;;;6.42;100.00
2785;BME280;57944;48.722;9.316;2023-04-25T03:13:50;97375.81;;;6.39;100.00
2785;BME280;57944;48.722;9.316;2023-04-25T03:16:20;97381.06;;;6.37;100.00
2785;BME280;57944;48.722;9.316;2023-04-25T03:18:51;97380.03;;;6.32;100.00
2785;BME280;57944;48.722;9.316;2023-04-25T03:21:21;97381.84;;;6.38;100.00
2785;BME280;57944;48.722;9.316;2023-04-25T03:23:55;97373.22;;;6.32;100.00
2785;BME280;57944;48.722;9.316;2023-04-25T03:26:25;97370.56;;;6.40;100.00
2785;BME280;57944;48.722;9.316;2023-04-25T03:28:55;97374.19;;;6.53;100.00
2785;BME280;57944;48.722;9.316;2023-04-25T03:31:26;97367.13;;;6.48;100.00
2785;BME280;57944;48.722;9.316;2023-04-25T03:33:56;97372.28;;;6.55;100.00
2785;BME280;57944;48.722;9.316;2023-04-25T03:36:27;97371.31;;;6.56;100.00
2785;BME280;57944;48.722;9.316;2023-04-25T03:39:00;97371.72;;;6.59;100.00
2785;BME280;57944;48.722;9.316;2023-04-25T03:41:31;97367.44;;;6.60;100.00
2785;BME280;57944;48.722;9.316;2023-04-25T03:44:06;97368.66;;;6.64;100.00
2785;BME280;57944;48.722;9.316;2023-04-25T03:46:36;97369.97;;;6.60;100.00
2785;BME280;57944;48.722;9.316;2023-04-25T03:49:06;97366.63;;;6.53;100.00
2785;BME280;57944;48.722;9.316;2023-04-25T03:51:55;97360.81;;;6.37;100.00
2785;BME280;57944;48.722;9.316;2023-04-25T03:54:28;97365.97;;;6.29;100.00
2785;BME280;57944;48.722;9.316;2023-04-25T03:57:18;97370.72;;;6.17;100.00
2785;BME280;57944;48.722;9.316;2023-04-25T03:59:49;97367.09;;;6.05;100.00
2785;BME280;57944;48.722;9.316;2023-04-25T04:02:19;97366.84;;;6.00;100.00
2785;BME280;57944;48.722;9.316;2023-04-25T04:04:52;97365.88;;;5.86;100.00
2785;BME280;57944;48.722;9.316;2023-04-25T04:07:23;97369.28;;;5.93;100.00
2785;BME280;57944;48.722;9.316;2023-04-25T04:09:59;97376.94;;;6.15;100.00
2785;BME280;57944;48.722;9.316;2023-04-25T04:12:35;97375.69;;;6.25;100.00
2785;BME280;57944;48.722;9.316;2023-04-25T04:15:06;97379.44;;;6.30;100.00
2785;BME280;57944;48.722;9.316;2023-04-25T04:17:37;97372.50;;;6.38;100.00
2785;BME280;57944;48.722;9.316;2023-04-25T04:20:08;97376.72;;;6.31;100.00
2785;BME280;57944;48.722;9.316;2023-04-25T04:22:40;97379.78;;;6.26;100.00
2785;BME280;57944;48.722;9.316;2023-04-25T04:25:15;97373.31;;;6.24;100.00
2785;BME280;57944;48.722;9.316;2023-04-25T04:28:12;97378.09;;;6.34;100.00
2785;BME280;57944;48.722;9.316;2023-04-25T04:30:59;97387.91;;;6.43;100.00
2785;BME280;57944;48.722;9.316;2023-04-25T04:33:31;97380.22;;;6.52;100.00
2785;BME280;57944;48.722;9.316;2023-04-25T04:36:03;97377.28;;;6.48;100.00
2785;BME280;57944;48.722;9.316;2023-04-25T04:38:34;97380.31;;;6.43;100.00
2785;BME280;57944;48.722;9.316;2023-04-25T04:41:12;97382.75;;;6.52;100.00
2785;BME280;57944;48.722;9.316;2023-04-25T04:44:09;97386.84;;;6.74;100.00
2785;BME280;57944;48.722;9.316;2023-04-25T04:47:06;97398.31;;;6.91;100.00
2785;BME280;57944;48.722;9.316;2023-04-25T04:49:56;97398.75;;;7.02;100.00
2785;BME280;57944;48.722;9.316;2023-04-25T04:52:38;97390.59;;;7.00;100.00
2785;BME280;57944;48.722;9.316;2023-04-25T04:55:29;97394.16;;;7.12;100.00
2785;BME280;57944;48.722;9.316;2023-04-25T04:58:30;97405.03;;;7.06;100.00
2785;BME280;57944;48.722;9.316;2023-04-25T05:01:11;97404.63;;;7.30;100.00
2785;BME280;57944;48.722;9.316;2023-04-25T05:04:02;97410.84;;;7.56;100.00
2785;BME280;57944;48.722;9.316;2023-04-25T05:06:42;97411.13;;;7.74;100.00
2785;BME280;57944;48.722;9.316;2023-04-25T05:09:15;97417.63;;;7.83;100.00
2785;BME280;57944;48.722;9.316;2023-04-25T05:12:06;97410.97;;;7.82;100.00
2785;BME280;57944;48.722;9.316;2023-04-25T05:14:51;97412.53;;;7.83;100.00
2785;BME280;57944;48.722;9.316;2023-04-25T05:17:51;97407.88;;;7.87;100.00
2785;BME280;57944;48.722;9.316;2023-04-25T05:20:44;97413.47;;;8.24;100.00
2785;BME280;57944;48.722;9.316;2023-04-25T05:23:24;97410.38;;;8.22;100.00
2785;BME280;57944;48.722;9.316;2023-04-25T05:26:15;97414.25;;;8.18;100.00
2785;BME280;57944;48.722;9.316;2023-04-25T05:29:24;97414.63;;;8.15;100.00
2785;BME280;57944;48.722;9.316;2023-04-25T05:32:08;97417.00;;;8.23;100.00
2785;BME280;57944;48.722;9.316;2023-04-25T05:34:39;97410.75;;;8.32;100.00
2785;BME280;57944;48.722;9.316;2023-04-25T05:37:19;97413.94;;;8.41;100.00
2785;BME280;57944;48.722;9.316;2023-04-25T05:39:58;97418.06;;;8.42;100.00
2785;BME280;57944;48.722;9.316;2023-04-25T05:42:54;97427.91;;;8.78;100.00
2785;BME280;57944;48.722;9.316;2023-04-25T05:45:45;97421.63;;;8.94;100.00
2785;BME280;57944;48.722;9.316;2023-04-25T05:48:44;97425.38;;;8.98;100.00
2785;BME280;57944;48.722;9.316;2023-04-25T05:51:37;97425.75;;;9.02;100.00
2785;BME280;57944;48.722;9.316;2023-04-25T05:54:26;97424.97;;;9.14;100.00
2785;BME280;57944;48.722;9.316;2023-04-25T05:56:57;97420.66;;;9.35;100.00
2785;BME280;57944;48.722;9.316;2023-04-25T05:59:27;97423.38;;;9.53;100.00
2785;BME280;57944;48.722;9.316;2023-04-25T06:01:57;97419.25;;;9.72;100.00
2785;BME280;57944;48.722;9.316;2023-04-25T06:04:33;97421.13;;;9.90;100.00
2785;BME280;57944;48.722;9.316;2023-04-25T06:07:05;97423.97;;;10.14;100.00
2785;BME280;57944;48.722;9.316;2023-04-25T06:09:36;97428.09;;;10.60;100.00
2785;BME280;57944;48.722;9.316;2023-04-25T06:12:06;97433.84;;;10.48;100.00
2785;BME280;57944;48.722;9.316;2023-04-25T06:14:37;97432.53;;;10.71;100.00
2785;BME280;57944;48.722;9.316;2023-04-25T06:17:07;97432.88;;;10.81;100.00
2785;BME280;57944;48.722;9.316;2023-04-25T06:19:40;97437.16;;;10.81;100.00
2785;BME280;57944;48.722;9.316;2023-04-25T06:22:11;97436.38;;;10.48;100.00
2785;BME280;57944;48.722;9.316;2023-04-25T06:24:42;97427.59;;;9.86;100.00
2785;BME280;57944;48.722;9.316;2023-04-25T06:27:13;97416.31;;;9.55;100.00
2785;BME280;57944;48.722;9.316;2023-04-25T06:29:43;97416.75;;;9.39;100.00
2785;BME280;57944;48.722;9.316;2023-04-25T06:32:14;97411.81;;;9.64;100.00
2785;BME280;57944;48.722;9.316;2023-04-25T06:34:48;97401.22;;;9.74;100.00
2785;BME280;57944;48.722;9.316;2023-04-25T06:37:18;97406.53;;;9.66;100.00
2785;BME280;57944;48.722;9.316;2023-04-25T06:39:50;97404.59;;;9.54;100.00
2785;BME280;57944;48.722;9.316;2023-04-25T06:42:20;97407.38;;;9.13;100.00
2785;BME280;57944;48.722;9.316;2023-04-25T06:44:58;97406.22;;;8.95;100.00
2785;BME280;57944;48.722;9.316;2023-04-25T06:47:29;97404.84;;;8.86;100.00
2785;BME280;57944;48.722;9.316;2023-04-25T06:50:04;97403.47;;;8.90;100.00
2785;BME280;57944;48.722;9.316;2023-04-25T06:52:36;97400.13;;;8.77;100.00
2785;BME280;57944;48.722;9.316;2023-04-25T06:55:06;97407.53;;;8.52;100.00
2785;BME280;57944;48.722;9.316;2023-04-25T06:57:55;97409.00;;;8.33;100.00
2785;BME280;57944;48.722;9.316;2023-04-25T07:00:51;97410.91;;;8.17;100.00
2785;BME280;57944;48.722;9.316;2023-04-25T07:03:24;97409.75;;;8.20;100.00
2785;BME280;57944;48.722;9.316;2023-04-25T07:06:02;97416.63;;;8.26;100.00
2785;BME280;57944;48.722;9.316;2023-04-25T07:08:32;97414.25;;;8.24;100.00
2785;BME280;57944;48.722;9.316;2023-04-25T07:11:02;97414.38;;;8.44;100.00
2785;BME280;57944;48.722;9.316;2023-04-25T07:13:33;97417.50;;;8.53;100.00
2785;BME280;57944;48.722;9.316;2023-04-25T07:16:04;97416.31;;;8.49;100.00
2785;BME280;57944;48.722;9.316;2023-04-25T07:18:35;97425.31;;;8.52;100.00
2785;BME280;57944;48.722;9.316;2023-04-25T07:21:08;97431.56;;;8.56;100.00
2785;BME280;57944;48.722;9.316;2023-04-25T07:23:40;97424.44;;;8.38;100.00
2785;BME280;57944;48.722;9.316;2023-04-25T07:26:14;97425.22;;;8.38;100.00
2785;BME280;57944;48.722;9.316;2023-04-25T07:29:15;97429.59;;;8.44;100.00
2785;BME280;57944;48.722;9.316;2023-04-25T07:31:45;97424.91;;;8.55;100.00
2785;BME280;57944;48.722;9.316;2023-04-25T07:34:15;97433.13;;;8.50;100.00
2785;BME280;57944;48.722;9.316;2023-04-25T07:36:48;97426.00;;;8.25;100.00
2785;BME280;57944;48.722;9.316;2023-04-25T07:39:19;97435.47;;;8.03;100.00
2785;BME280;57944;48.722;9.316;2023-04-25T07:41:50;97435.53;;;7.75;100.00
2785;BME280;57944;48.722;9.316;2023-04-25T07:44:25;97431.72;;;7.58;100.00
2785;BME280;57944;48.722;9.316;2023-04-25T07:46:57;97433.84;;;7.54;100.00
2785;BME280;57944;48.722;9.316;2023-04-25T07:49:30;97440.88;;;7.59;100.00
2785;BME280;57944;48.722;9.316;2023-04-25T07:52:04;97450.28;;;7.65;100.00
2785;BME280;57944;48.722;9.316;2023-04-25T07:54:37;97444.47;;;7.71;100.00
2785;BME280;57944;48.722;9.316;2023-04-25T07:57:15;97454.22;;;7.74;100.00
2785;BME280;57944;48.722;9.316;2023-04-25T07:59:47;97461.34;;;7.86;100.00
2785;BME280;57944;48.722;9.316;2023-04-25T08:02:18;97457.06;;;7.93;100.00
2785;BME280;57944;48.722;9.316;2023-04-25T08:04:49;97466.03;;;7.89;100.00
2785;BME280;57944;48.722;9.316;2023-04-25T08:07:23;97468.88;;;7.72;100.00
2785;BME280;57944;48.722;9.316;2023-04-25T08:09:56;97462.81;;;7.73;100.00
2785;BME280;57944;48.722;9.316;2023-04-25T08:12:31;97480.34;;;7.68;100.00
2785;BME280;57944;48.722;9.316;2023-04-25T08:15:03;97476.09;;;7.75;100.00
2785;BME280;57944;48.722;9.316;2023-04-25T08:17:37;97481.59;;;7.79;100.00
2785;BME280;57944;48.722;9.316;2023-04-25T08:20:08;97487.94;;;7.68;100.00
2785;BME280;57944;48.722;9.316;2023-04-25T08:22:41;97492.09;;;7.48;100.00
2785;BME280;57944;48.722;9.316;2023-04-25T08:25:26;97487.59;;;7.43;100.00
2785;BME280;57944;48.722;9.316;2023-04-25T08:27:57;97485.63;;;7.38;100.00
2785;BME280;57944;48.722;9.316;2023-04-25T08:30:30;97492.72;;;7.50;100.00
2785;BME280;57944;48.722;9.316;2023-04-25T08:33:00;97493.44;;;7.44;100.00
2785;BME280;57944;48.722;9.316;2023-04-25T08:35:56;97501.63;;;7.67;100.00
2785;BME280;57944;48.722;9.316;2023-04-25T08:38:31;97502.22;;;7.69;100.00
2785;BME280;57944;48.722;9.316;2023-04-25T08:41:03;97500.19;;;7.58;100.00
2785;BME280;57944;48.722;9.316;2023-04-25T08:43:35;97503.31;;;7.60;100.00
2785;BME280;57944;48.722;9.316;2023-04-25T08:46:05;97514.75;;;7.77;100.00
2785;BME280;57944;48.722;9.316;2023-04-25T08:48:44;97515.06;;;7.68;100.00
2785;BME280;57944;48.722;9.316;2023-04-25T08:51:21;97521.75;;;7.75;100.00
2785;BME280;57944;48.722;9.316;2023-04-25T08:53:55;97530.31;;;7.74;100.00
2785;BME280;57944;48.722;9.316;2023-04-25T08:56:36;97533.06;;;7.73;100.00
2785;BME280;57944;48.722;9.316;2023-04-25T08:59:06;97536.41;;;7.80;100.00
2785;BME280;57944;48.722;9.316;2023-04-25T09:01:37;97536.75;;;7.70;100.00
2785;BME280;57944;48.722;9.316;2023-04-25T09:04:08;97543.88;;;7.88;100.00
2785;BME280;57944;48.722;9.316;2023-04-25T09:06:40;97539.75;;;7.80;100.00
2785;BME280;57944;48.722;9.316;2023-04-25T09:09:14;97544.63;;;7.54;100.00
2785;BME280;57944;48.722;9.316;2023-04-25T09:11:44;97544.59;;;7.75;100.00
2785;BME280;57944;48.722;9.316;2023-04-25T09:14:15;97556.41;;;7.90;100.00
2785;BME280;57944;48.722;9.316;2023-04-25T09:17:03;97552.00;;;7.77;100.00
2785;BME280;57944;48.722;9.316;2023-04-25T09:19:43;97553.66;;;7.63;100.00
2785;BME280;57944;48.722;9.316;2023-04-25T09:22:32;97563.34;;;7.53;100.00
2785;BME280;57944;48.722;9.316;2023-04-25T09:25:07;97567.69;;;7.59;100.00
2785;BME280;57944;48.722;9.316;2023-04-25T09:27:48;97567.22;;;7.77;100.00
2785;BME280;57944;48.722;9.316;2023-04-25T09:30:28;97573.31;;;7.82;100.00
2785;BME280;57944;48.722;9.316;2023-04-25T09:33:07;97574.25;;;8.03;100.00
2785;BME280;57944;48.722;9.316;2023-04-25T09:35:42;97583.91;;;8.14;100.00
2785;BME280;57944;48.722;9.316;2023-04-25T09:38:21;97582.41;;;7.98;100.00
2785;BME280;57944;48.722;9.316;2023-04-25T09:40:53;97589.25;;;7.98;100.00
2785;BME280;57944;48.722;9.316;2023-04-25T09:43:38;97594.84;;;7.44;100.00
2785;BME280;57944;48.722;9.316;2023-04-25T09:46:09;97592.69;;;7.62;100.00
2785;BME280;57944;48.722;9.316;2023-04-25T09:48:47;97597.38;;;7.65;100.00
2785;BME280;57944;48.722;9.316;2023-04-25T09:51:25;97602.69;;;7.49;100.00
2785;BME280;57944;48.722;9.316;2023-04-25T09:53:58;97605.44;;;7.47;100.00
2785;BME280;57944;48.722;9.316;2023-04-25T09:56:41;97610.53;;;7.54;100.00
2785;BME280;57944;48.722;9.316;2023-04-25T09:59:12;97615.63;;;7.54;100.00
2785;BME280;57944;48.722;9.316;2023-04-25T10:01:43;97613.84;;;7.54;100.00
2785;BME280;57944;48.722;9.316;2023-04-25T10:04:26;97613.69;;;7.56;100.00
2785;BME280;57944;48.722;9.316;2023-04-25T10:07:04;97616.22;;;7.77;100.00
2785;BME280;57944;48.722;9.316;2023-04-25T10:09:36;97616.09;;;7.64;100.00
2785;BME280;57944;48.722;9.316;2023-04-25T10:12:09;97619.19;;;7.59;100.00
2785;BME280;57944;48.722;9.316;2023-04-25T10:24:03;97635.69;;;6.98;100.00
2785;BME280;57944;48.722;9.316;2023-04-25T10:26:34;97644.94;;;6.90;100.00
2785;BME280;57944;48.722;9.316;2023-04-25T10:29:07;97650.03;;;6.90;100.00
2785;BME280;57944;48.722;9.316;2023-04-25T10:31:44;97663.13;;;6.79;100.00
2785;BME280;57944;48.722;9.316;2023-04-25T10:34:15;97657.56;;;6.69;100.00
2785;BME280;57944;48.722;9.316;2023-04-25T10:36:49;97660.78;;;6.63;100.00
2785;BME280;57944;48.722;9.316;2023-04-25T10:39:23;97663.22;;;6.71;100.00
2785;BME280;57944;48.722;9.316;2023-04-25T10:41:55;97664.34;;;6.68;100.00
2785;BME280;57944;48.722;9.316;2023-04-25T10:44:29;97667.59;;;6.77;100.00
2785;BME280;57944;48.722;9.316;2023-04-25T10:47:00;97666.72;;;6.70;100.00
2785;BME280;57944;48.722;9.316;2023-04-25T10:49:33;97669.88;;;6.72;100.00
2785;BME280;57944;48.722;9.316;2023-04-25T10:52:17;97678.31;;;6.79;100.00
2785;BME280;57944;48.722;9.316;2023-04-25T10:54:47;97674.84;;;6.95;100.00
2785;BME280;57944;48.722;9.316;2023-04-25T10:57:27;97682.38;;;6.88;100.00
2785;BME280;57944;48.722;9.316;2023-04-25T11:00:14;97683.66;;;6.84;100.00
2785;BME280;57944;48.722;9.316;2023-04-25T11:02:46;97688.88;;;6.68;100.00
2785;BME280;57944;48.722;9.316;2023-04-25T11:05:19;97687.84;;;6.62;100.00
2785;BME280;57944;48.722;9.316;2023-04-25T11:07:51;97694.16;;;6.66;100.00
2785;BME280;57944;48.722;9.316;2023-04-25T11:10:34;97691.41;;;6.68;100.00
2785;BME280;57944;48.722;9.316;2023-04-25T11:13:05;97691.50;;;6.60;100.00
2785;BME280;57944;48.722;9.316;2023-04-25T11:15:38;97704.72;;;6.70;100.00
2785;BME280;57944;48.722;9.316;2023-04-25T11:18:08;97703.84;;;6.92;100.00
2785;BME280;57944;48.722;9.316;2023-04-25T11:20:38;97697.53;;;7.18;100.00
2785;BME280;57944;48.722;9.316;2023-04-25T11:23:09;97704.88;;;6.83;100.00
2785;BME280;57944;48.722;9.316;2023-04-25T11:25:39;97720.53;;;6.72;100.00
2785;BME280;57944;48.722;9.316;2023-04-25T11:28:09;97721.66;;;6.32;100.00
2785;BME280;57944;48.722;9.316;2023-04-25T11:30:47;97722.72;;;6.37;100.00
2785;BME280;57944;48.722;9.316;2023-04-25T11:33:17;97725.94;;;6.31;100.00
2785;BME280;57944;48.722;9.316;2023-04-25T11:35:53;97727.19;;;6.35;100.00
2785;BME280;57944;48.722;9.316;2023-04-25T11:38:24;97731.34;;;6.28;100.00
2785;BME280;57944;48.722;9.316;2023-04-25T11:40:56;97729.63;;;6.43;100.00
2785;BME280;57944;48.722;9.316;2023-04-25T11:43:28;97726.88;;;6.68;100.00
2785;BME280;57944;48.722;9.316;2023-04-25T11:46:01;97732.22;;;6.88;100.00
2785;BME280;57944;48.722;9.316;2023-04-25T11:48:36;97734.78;;;7.03;100.00
2785;BME280;57944;48.722;9.316;2023-04-25T11:51:07;97730.31;;;6.90;100.00
2785;BME280;57944;48.722;9.316;2023-04-25T11:53:40;97726.53;;;7.30;100.00
2785;BME280;57944;48.722;9.316;2023-04-25T11:56:11;97733.56;;;7.65;100.00
2785;BME280;57944;48.722;9.316;2023-04-25T11:58:54;97741.22;;;7.71;100.00
2785;BME280;57944;48.722;9.316;2023-04-25T12:01:28;97744.97;;;7.75;100.00
2785;BME280;57944;48.722;9.316;2023-04-25T12:04:11;97741.47;;;7.76;100.00
2785;BME280;57944;48.722;9.316;2023-04-25T12:06:43;97747.53;;;8.18;100.00
2785;BME280;57944;48.722;9.316;2023-04-25T12:09:15;97750.06;;;8.61;100.00
2785;BME280;57944;48.722;9.316;2023-04-25T12:11:46;97753.56;;;8.60;100.00
2785;BME280;57944;48.722;9.316;2023-04-25T12:14:20;97749.13;;;8.41;100.00
2785;BME280;57944;48.722;9.316;2023-04-25T12:16:54;97759.06;;;8.92;100.00
2785;BME280;57944;48.722;9.316;2023-04-25T12:19:26;97755.19;;;8.68;100.00
2785;BME280;57944;48.722;9.316;2023-04-25T12:21:56;97757.53;;;8.41;100.00
2785;BME280;57944;48.722;9.316;2023-04-25T12:24:27;97762.16;;;8.59;100.00
2785;BME280;57944;48.722;9.316;2023-04-25T12:27:02;97764.03;;;9.07;100.00
2785;BME280;57944;48.722;9.316;2023-04-25T12:29:33;97766.03;;;8.55;100.00
2785;BME280;57944;48.722;9.316;2023-04-25T12:32:18;97767.19;;;8.53;100.00
2785;BME280;57944;48.722;9.316;2023-04-25T12:34:49;97770.63;;;8.66;100.00
2785;BME280;57944;48.722;9.316;2023-04-25T12:37:19;97770.13;;;8.78;100.00
2785;BME280;57944;48.722;9.316;2023-04-25T12:39:50;97774.50;;;8.90;100.00
2785;BME280;57944;48.722;9.316;2023-04-25T12:42:20;97775.69;;;8.94;100.00
2785;BME280;57944;48.722;9.316;2023-04-25T12:44:50;97775.50;;;8.96;100.00
2785;BME280;57944;48.722;9.316;2023-04-25T12:47:23;97778.91;;;8.54;100.00
2785;BME280;57944;48.722;9.316;2023-04-25T12:49:53;97779.91;;;8.38;100.00
2785;BME280;57944;48.722;9.316;2023-04-25T12:52:24;97773.34;;;8.22;100.00
2785;BME280;57944;48.722;9.316;2023-04-25T12:54:54;97774.66;;;8.18;100.00
2785;BME280;57944;48.722;9.316;2023-04-25T12:57:24;97779.50;;;8.34;100.00
2785;BME280;57944;48.722;9.316;2023-04-25T12:59:54;97785.03;;;8.59;100.00
2785;BME280;57944;48.722;9.316;2023-04-25T13:02:27;97778.38;;;8.58;100.00
2785;BME280;57944;48.722;9.316;2023-04-25T13:04:58;97775.25;;;8.91;100.00
2785;BME280;57944;48.722;9.316;2023-04-25T13:07:28;97775.66;;;9.71;100.00
2785;BME280;57944;48.722;9.316;2023-04-25T13:10:01;97775.44;;;10.40;100.00
2785;BME280;57944;48.722;9.316;2023-04-25T13:12:33;97783.25;;;10.85;100.00
2785;BME280;57944;48.722;9.316;2023-04-25T13:15:04;97775.97;;;11.02;100.00
2785;BME280;57944;48.722;9.316;2023-04-25T13:17:39;97762.88;;;10.39;100.00
2785;BME280;57944;48.722;9.316;2023-04-25T13:20:09;97765.91;;;11.27;100.00
2785;BME280;57944;48.722;9.316;2023-04-25T13:22:41;97771.88;;;11.98;100.00
2785;BME280;57944;48.722;9.316;2023-04-25T13:25:13;97778.81;;;12.47;100.00
2785;BME280;57944;48.722;9.316;2023-04-25T13:27:43;97778.81;;;12.72;100.00
2785;BME280;57944;48.722;9.316;2023-04-25T13:30:14;97778.53;;;13.43;100.00
2785;BME280;57944;48.722;9.316;2023-04-25T13:32:47;97788.38;;;15.07;100.00
2785;BME280;57944;48.722;9.316;2023-04-25T13:35:17;97784.09;;;15.36;94.08
2785;BME280;57944;48.722;9.316;2023-04-25T13:37:48;97791.34;;;15.39;79.56
2785;BME280;57944;48.722;9.316;2023-04-25T13:40:18;97784.03;;;15.07;86.20
2785;BME280;57944;48.722;9.316;2023-04-25T13:42:51;97783.16;;;14.13;86.44
2785;BME280;57944;48.722;9.316;2023-04-25T13:45:22;97785.22;;;14.04;83.69
2785;BME280;57944;48.722;9.316;2023-04-25T13:47:54;97780.44;;;13.47;94.50
2785;BME280;57944;48.722;9.316;2023-04-25T13:50:25;97781.06;;;13.06;92.12
2785;BME280;57944;48.722;9.316;2023-04-25T13:52:55;97779.50;;;12.61;96.52
2785;BME280;57944;48.722;9.316;2023-04-25T13:55:26;97778.94;;;13.03;93.63
2785;BME280;57944;48.722;9.316;2023-04-25T13:57:56;97780.84;;;12.39;96.54